createdAt,value
2023-04-08T00:01:16.589Z,11.00
2023-04-08T00:03:45.531Z,11.85
2023-04-08T00:06:15.000Z,10.77
2023-04-08T00:08:46.736Z,11.50
2023-04-08T00:11:20.150Z,11.80
2023-04-08T00:14:04.399Z,10.90
2023-04-08T00:16:33.777Z,10.35
2023-04-08T00:19:06.973Z,9.05
2023-04-08T00:21:36.031Z,11.15
2023-04-08T00:24:07.667Z,9.65
2023-04-08T00:26:46.834Z,9.95
2023-04-08T00:29:16.068Z,10.85
2023-04-08T00:31:44.433Z,9.95
2023-04-08T00:34:18.138Z,9.73
2023-04-08T00:36:50.005Z,9.18
2023-04-08T00:39:20.745Z,8.50
2023-04-08T00:41:50.623Z,8.95
2023-04-08T00:44:30.570Z,8.70
2023-04-08T00:46:59.073Z,9.10
2023-04-08T00:49:28.329Z,9.43
2023-04-08T00:52:00.588Z,8.80
2023-04-08T00:54:29.258Z,9.18
2023-04-08T00:57:01.377Z,7.60
2023-04-08T00:59:31.682Z,8.65
2023-04-08T01:02:11.043Z,7.70
2023-04-08T01:04:51.042Z,7.03
2023-04-08T01:07:23.556Z,7.78
2023-04-08T01:09:56.419Z,7.90
2023-04-08T01:12:28.806Z,8.20
2023-04-08T01:15:01.796Z,9.05
2023-04-08T01:17:31.769Z,13.65
2023-04-08T01:20:02.068Z,62.72
2023-04-08T01:22:42.162Z,53.25
2023-04-08T01:25:18.520Z,9.27
2023-04-08T01:27:50.644Z,8.55
2023-04-08T01:30:30.694Z,8.13
2023-04-08T01:33:02.340Z,8.75
2023-04-08T01:35:32.627Z,6.82
2023-04-08T01:38:02.953Z,7.65
2023-04-08T01:40:32.380Z,7.78
2023-04-08T01:43:04.604Z,7.65
2023-04-08T01:45:33.473Z,6.78
2023-04-08T01:48:03.789Z,6.47
2023-04-08T01:50:42.960Z,6.28
2023-04-08T01:53:12.880Z,5.22
2023-04-08T01:55:43.352Z,5.60
2023-04-08T01:58:19.732Z,5.78
2023-04-08T02:00:49.204Z,5.30
2023-04-08T02:03:21.623Z,5.05
2023-04-08T02:05:53.319Z,5.90
2023-04-08T02:08:21.819Z,4.60
2023-04-08T02:10:50.423Z,4.75
2023-04-08T02:13:23.388Z,5.32
2023-04-08T02:15:58.420Z,4.82
2023-04-08T02:18:28.713Z,4.80
2023-04-08T02:21:01.973Z,4.50
2023-04-08T02:23:31.210Z,4.70
2023-04-08T02:25:59.901Z,4.68
2023-04-08T02:28:31.735Z,4.70
2023-04-08T02:31:02.344Z,4.93
2023-04-08T02:33:31.188Z,4.72
2023-04-08T02:36:00.122Z,5.10
2023-04-08T02:38:30.749Z,5.28
2023-04-08T02:40:59.884Z,5.00
2023-04-08T02:43:32.350Z,6.15
2023-04-08T02:46:03.919Z,6.22
2023-04-08T02:48:32.999Z,5.60
2023-04-08T02:51:02.350Z,6.05
2023-04-08T02:53:30.773Z,6.07
2023-04-08T02:55:59.034Z,5.45
2023-04-08T02:58:27.533Z,4.82
2023-04-08T03:00:57.745Z,4.75
2023-04-08T03:03:29.703Z,4.00
2023-04-08T03:05:59.408Z,4.05
2023-04-08T03:08:28.244Z,4.18
2023-04-08T03:10:56.788Z,3.35
2023-04-08T03:13:30.599Z,4.80
2023-04-08T03:16:00.346Z,4.68
2023-04-08T03:18:28.652Z,4.50
2023-04-08T03:20:57.620Z,5.97
2023-04-08T03:23:26.250Z,6.25
2023-04-08T03:25:54.989Z,7.03
2023-04-08T03:28:25.790Z,6.82
2023-04-08T03:31:03.276Z,6.95
2023-04-08T03:33:42.220Z,6.90
2023-04-08T03:36:10.742Z,5.90
2023-04-08T03:38:42.440Z,6.50
2023-04-08T03:41:10.918Z,6.13
2023-04-08T03:43:39.192Z,6.20
2023-04-08T03:46:07.787Z,6.40
2023-04-08T03:48:40.945Z,5.53
2023-04-08T03:51:09.342Z,5.82
2023-04-08T03:53:37.697Z,5.20
2023-04-08T03:56:06.706Z,4.90
2023-04-08T03:58:35.141Z,5.20
2023-04-08T04:01:04.252Z,4.85
2023-04-08T04:03:35.521Z,5.38
2023-04-08T04:06:05.698Z,4.60
2023-04-08T04:08:34.170Z,4.90
2023-04-08T04:11:02.557Z,5.35
2023-04-08T04:13:31.057Z,4.95
2023-04-08T04:15:59.547Z,5.25
2023-04-08T04:18:28.042Z,5.30
2023-04-08T04:20:56.545Z,5.70
2023-04-08T04:23:26.259Z,6.05
2023-04-08T04:25:54.554Z,6.25
2023-04-08T04:28:22.948Z,6.20
2023-04-08T04:30:51.418Z,7.28
2023-04-08T04:33:19.914Z,6.93
2023-04-08T04:35:51.154Z,8.27
2023-04-08T04:38:19.668Z,7.97
2023-04-08T04:40:49.499Z,7.50
2023-04-08T04:43:18.393Z,7.43
2023-04-08T04:45:47.356Z,6.90
2023-04-08T04:48:16.376Z,6.70
2023-04-08T04:50:56.322Z,6.13
2023-04-08T04:53:25.184Z,7.82
2023-04-08T04:55:58.092Z,8.25
2023-04-08T04:58:27.244Z,9.45
2023-04-08T05:00:57.729Z,10.52
2023-04-08T05:03:27.124Z,9.43
2023-04-08T05:05:56.335Z,10.52
2023-04-08T05:08:26.626Z,12.73
2023-04-08T05:10:59.875Z,13.30
2023-04-08T05:13:28.632Z,14.55
2023-04-08T05:15:57.441Z,13.68
2023-04-08T05:18:26.049Z,12.90
2023-04-08T05:23:48.615Z,13.48
2023-04-08T05:26:20.275Z,10.88
2023-04-08T05:28:52.888Z,11.20
2023-04-08T05:31:22.796Z,10.60
2023-04-08T05:33:57.013Z,10.85
2023-04-08T05:36:28.832Z,10.90
2023-04-08T05:38:59.529Z,10.80
2023-04-08T05:41:30.310Z,10.85
2023-04-08T05:43:58.709Z,11.82
2023-04-08T05:46:28.338Z,10.27
2023-04-08T05:48:56.791Z,10.40
2023-04-08T05:51:25.189Z,10.25
2023-04-08T05:53:53.785Z,10.60
2023-04-08T05:56:22.255Z,10.95
2023-04-08T05:58:52.554Z,10.18
2023-04-08T06:01:21.081Z,9.77
2023-04-08T06:03:49.546Z,11.00
2023-04-08T06:06:18.086Z,11.77
2023-04-08T06:08:47.370Z,11.90
2023-04-08T06:11:15.901Z,10.60
2023-04-08T06:13:47.455Z,11.65
2023-04-08T06:16:20.806Z,10.40
2023-04-08T06:18:53.258Z,11.80
2023-04-08T06:21:29.191Z,11.48
2023-04-08T06:23:58.539Z,12.05
2023-04-08T06:26:33.573Z,11.50
2023-04-08T06:29:05.392Z,9.75
2023-04-08T06:31:38.465Z,11.60
2023-04-08T06:34:13.339Z,10.65
2023-04-08T06:36:42.437Z,10.68
2023-04-08T06:42:07.610Z,12.27
2023-04-08T06:44:39.758Z,11.52
2023-04-08T06:47:17.742Z,12.05
2023-04-08T06:49:56.575Z,12.40
2023-04-08T06:52:34.229Z,13.85
2023-04-08T06:55:19.309Z,13.27
2023-04-08T06:57:48.509Z,14.00
2023-04-08T07:00:20.171Z,14.73
2023-04-08T07:02:52.524Z,14.63
2023-04-08T07:05:26.722Z,14.50
2023-04-08T07:07:56.699Z,14.45
2023-04-08T07:10:42.359Z,15.57
2023-04-08T07:13:10.935Z,14.57
2023-04-08T07:15:39.748Z,14.52
2023-04-08T07:18:14.456Z,15.10
2023-04-08T07:21:01.803Z,14.95
2023-04-08T07:23:33.721Z,18.20
2023-04-08T07:26:04.860Z,17.95
2023-04-08T07:28:33.861Z,14.48
2023-04-08T07:31:14.358Z,13.82
2023-04-08T07:33:44.587Z,13.52
2023-04-08T07:36:17.608Z,14.20
2023-04-08T07:38:56.239Z,13.05
2023-04-08T07:41:42.457Z,13.20
2023-04-08T07:44:11.775Z,14.05
2023-04-08T07:46:40.704Z,11.50
2023-04-08T07:49:17.622Z,14.02
2023-04-08T07:51:46.209Z,14.55
2023-04-08T07:54:17.620Z,14.43
2023-04-08T07:56:46.269Z,13.25
2023-04-08T07:59:15.216Z,15.30
2023-04-08T08:05:13.712Z,15.27
2023-04-08T08:07:54.954Z,16.17
2023-04-08T08:10:36.183Z,16.45
2023-04-08T08:13:09.414Z,16.25
2023-04-08T08:15:41.332Z,17.17
2023-04-08T08:18:24.326Z,18.10
2023-04-08T08:21:10.686Z,17.08
2023-04-08T08:23:44.304Z,16.40
2023-04-08T08:29:21.407Z,18.73
2023-04-08T08:32:03.902Z,17.33
2023-04-08T08:34:39.361Z,17.27
2023-04-08T08:37:43.567Z,17.13
2023-04-08T08:40:16.592Z,17.27
2023-04-08T08:42:58.024Z,17.95
2023-04-08T08:45:34.475Z,17.83
2023-04-08T08:48:03.527Z,17.92
2023-04-08T08:50:32.947Z,17.15
2023-04-08T08:53:03.448Z,17.55
2023-04-08T08:55:56.747Z,17.00
2023-04-08T08:58:22.538Z,16.48
2023-04-08T09:00:51.030Z,19.20
2023-04-08T09:03:22.297Z,16.10
2023-04-08T09:05:55.578Z,17.50
2023-04-08T09:08:33.955Z,18.60
2023-04-08T09:11:18.460Z,18.15
2023-04-08T09:14:02.453Z,15.98
2023-04-08T09:16:39.205Z,17.70
2023-04-08T09:19:13.601Z,19.60
2023-04-08T09:21:42.580Z,17.23
2023-04-08T09:24:32.415Z,15.50
2023-04-08T09:27:01.383Z,14.50
2023-04-08T09:29:39.902Z,16.33
2023-04-08T09:32:11.644Z,14.15
2023-04-08T09:34:47.760Z,14.45
2023-04-08T09:37:19.525Z,14.88
2023-04-08T09:39:49.928Z,16.13
2023-04-08T09:42:25.599Z,15.85
2023-04-08T09:45:00.186Z,15.32
2023-04-08T09:47:32.544Z,15.20
2023-04-08T09:50:06.766Z,15.02
2023-04-08T09:52:40.309Z,13.77
2023-04-08T09:55:15.101Z,15.00
2023-04-08T09:57:48.106Z,13.82
2023-04-08T10:00:17.789Z,14.57
2023-04-08T10:02:58.017Z,17.70
2023-04-08T10:05:31.145Z,19.45
2023-04-08T10:08:02.717Z,20.88
2023-04-08T10:10:37.104Z,20.08
2023-04-08T10:13:06.653Z,21.65
2023-04-08T10:15:39.729Z,21.60
2023-04-08T10:18:44.316Z,21.02
2023-04-08T10:21:37.064Z,23.45
2023-04-08T10:24:11.889Z,20.25
2023-04-08T10:26:44.131Z,21.02
2023-04-08T10:29:46.418Z,20.58
2023-04-08T10:32:41.872Z,20.92
2023-04-08T10:35:22.187Z,20.90
2023-04-08T10:37:53.967Z,20.08
2023-04-08T10:40:27.421Z,20.92
2023-04-08T10:42:58.285Z,19.77
2023-04-08T10:45:26.737Z,19.00
2023-04-08T10:47:55.178Z,17.45
2023-04-08T10:50:28.933Z,18.27
2023-04-08T10:52:57.666Z,18.40
2023-04-08T10:55:29.097Z,19.10
2023-04-08T10:58:13.468Z,19.80
2023-04-08T11:00:42.614Z,20.00
2023-04-08T11:03:15.108Z,19.23
2023-04-08T11:05:48.434Z,19.50
2023-04-08T11:08:20.911Z,20.83
2023-04-08T11:10:51.864Z,20.15
2023-04-08T11:13:27.744Z,20.90
2023-04-08T11:16:03.065Z,21.98
2023-04-08T11:18:39.173Z,19.90
2023-04-08T11:21:14.129Z,20.20
2023-04-08T11:23:44.645Z,21.48
2023-04-08T11:26:13.347Z,21.17
2023-04-08T11:28:47.701Z,25.00
2023-04-08T11:31:24.537Z,23.75
2023-04-08T11:33:56.911Z,23.00
2023-04-08T11:36:26.239Z,22.85
2023-04-08T11:38:56.337Z,20.33
2023-04-08T11:41:24.908Z,21.42
2023-04-08T11:43:57.099Z,21.27
2023-04-08T11:46:26.819Z,19.35
2023-04-08T11:49:08.087Z,17.42
2023-04-08T11:51:56.424Z,16.73
2023-04-08T11:54:29.139Z,19.60
2023-04-08T11:57:01.247Z,20.50
2023-04-08T11:59:31.115Z,19.40
2023-04-08T12:01:59.551Z,20.10
2023-04-08T12:04:28.752Z,19.85
2023-04-08T12:07:05.038Z,21.20
2023-04-08T12:09:33.703Z,20.35
2023-04-08T12:12:08.024Z,21.58
2023-04-08T12:14:37.724Z,30.45
2023-04-08T12:17:06.177Z,22.08
2023-04-08T12:19:36.449Z,20.95
2023-04-08T12:22:06.221Z,21.75
2023-04-08T12:24:49.847Z,20.35
2023-04-08T12:27:23.693Z,20.83
2023-04-08T12:29:57.888Z,21.10
2023-04-08T12:32:26.417Z,20.33
2023-04-08T12:34:55.160Z,21.55
2023-04-08T12:37:23.983Z,22.98
2023-04-08T12:39:52.776Z,22.00
2023-04-08T12:42:21.183Z,23.60
2023-04-08T12:44:49.494Z,24.48
2023-04-08T12:47:24.312Z,23.13
2023-04-08T12:49:54.445Z,21.27
2023-04-08T12:52:23.080Z,22.50
2023-04-08T12:54:51.462Z,22.85
2023-04-08T12:57:19.803Z,22.42
2023-04-08T12:59:48.952Z,23.33
2023-04-08T13:02:19.046Z,23.58
2023-04-08T13:04:47.382Z,21.42
2023-04-08T13:07:15.719Z,23.15
2023-04-08T13:09:47.460Z,24.15
2023-04-08T13:12:16.437Z,22.77
2023-04-08T13:14:45.014Z,22.33
2023-04-08T13:17:13.432Z,23.63
2023-04-08T13:19:43.362Z,22.40
2023-04-08T13:22:14.619Z,21.50
2023-04-08T13:24:49.047Z,22.40
2023-04-08T13:27:23.490Z,22.52
2023-04-08T13:29:51.987Z,21.80
2023-04-08T13:32:23.029Z,21.88
2023-04-08T13:35:02.182Z,21.52
2023-04-08T13:37:38.258Z,20.77
2023-04-08T13:40:09.073Z,20.42
2023-04-08T13:42:37.763Z,21.20
2023-04-08T13:45:07.223Z,20.00
2023-04-08T13:47:37.939Z,19.02
2023-04-08T13:50:09.490Z,18.50
2023-04-08T13:52:38.034Z,18.65
2023-04-08T13:55:08.063Z,17.95
2023-04-08T13:57:36.718Z,19.38
2023-04-08T14:00:05.612Z,18.25
2023-04-08T14:02:34.728Z,17.65
2023-04-08T14:05:08.886Z,17.85
2023-04-08T14:07:37.455Z,19.65
2023-04-08T14:10:07.871Z,18.38
2023-04-08T14:12:42.303Z,19.35
2023-04-08T14:15:11.720Z,19.15
2023-04-08T14:17:49.834Z,20.35
2023-04-08T14:20:22.806Z,19.38
2023-04-08T14:22:54.619Z,18.67
2023-04-08T14:25:23.481Z,19.00
2023-04-08T14:27:58.519Z,20.17
2023-04-08T14:30:27.951Z,19.15
2023-04-08T14:32:56.790Z,20.38
2023-04-08T14:35:32.764Z,19.38
2023-04-08T14:38:08.144Z,21.30
2023-04-08T14:40:37.924Z,19.58
2023-04-08T14:43:09.426Z,21.17
2023-04-08T14:45:40.591Z,23.10
2023-04-08T14:48:09.231Z,19.23
2023-04-08T14:50:40.813Z,18.73
2023-04-08T14:53:14.101Z,18.35
2023-04-08T14:55:42.992Z,18.75
2023-04-08T14:58:14.958Z,19.25
2023-04-08T15:00:47.909Z,18.27
2023-04-08T15:03:28.558Z,17.55
2023-04-08T15:06:06.099Z,17.05
2023-04-08T15:08:35.756Z,18.13
2023-04-08T15:11:04.218Z,17.77
2023-04-08T15:13:33.090Z,18.65
2023-04-08T15:16:03.515Z,18.23
2023-04-08T15:18:36.308Z,17.83
2023-04-08T15:21:06.667Z,16.80
2023-04-08T15:23:44.737Z,17.85
2023-04-08T15:26:19.171Z,16.88
2023-04-08T15:28:50.812Z,17.60
2023-04-08T15:31:19.791Z,17.95
2023-04-08T15:33:51.392Z,18.38
2023-04-08T15:36:21.791Z,17.35
2023-04-08T15:38:54.113Z,17.52
2023-04-08T15:41:32.527Z,17.80
2023-04-08T15:44:00.928Z,16.63
2023-04-08T15:46:32.472Z,18.33
2023-04-08T15:49:04.350Z,17.60
2023-04-08T15:51:35.050Z,17.45
2023-04-08T15:54:03.387Z,16.67
2023-04-08T15:56:31.692Z,16.80
2023-04-08T15:59:03.865Z,15.20
2023-04-08T16:01:33.450Z,15.95
2023-04-08T16:04:02.595Z,16.30
2023-04-08T16:06:31.390Z,15.38
2023-04-08T16:09:01.327Z,15.80
2023-04-08T16:11:30.240Z,19.98
2023-04-08T16:13:58.822Z,16.90
2023-04-08T16:16:27.241Z,17.77
2023-04-08T16:18:58.565Z,17.48
2023-04-08T16:21:26.966Z,17.38
2023-04-08T16:23:55.631Z,16.80
2023-04-08T16:26:30.146Z,16.40
2023-04-08T16:28:59.502Z,17.73
2023-04-08T16:33:59.837Z,15.98
2023-04-08T16:36:28.357Z,18.08
2023-04-08T16:38:57.476Z,16.77
2023-04-08T16:41:50.543Z,16.75
2023-04-08T16:44:22.259Z,17.33
2023-04-08T16:46:51.025Z,15.32
2023-04-08T16:49:19.618Z,15.43
2023-04-08T16:51:48.254Z,17.60
2023-04-08T16:54:17.009Z,15.68
2023-04-08T16:56:49.683Z,14.63
2023-04-08T16:59:18.324Z,15.45
2023-04-08T17:01:46.863Z,16.05
2023-04-08T17:04:15.535Z,15.35
2023-04-08T17:06:44.143Z,15.18
2023-04-08T17:09:12.834Z,16.50
2023-04-08T17:11:41.451Z,16.15
2023-04-08T17:14:11.199Z,17.98
2023-04-08T17:16:39.506Z,17.45
2023-04-08T17:19:07.826Z,15.80
2023-04-08T17:21:36.341Z,16.73
2023-04-08T17:24:04.842Z,15.40
2023-04-08T17:26:33.450Z,16.48
2023-04-08T17:29:01.746Z,14.63
2023-04-08T17:31:31.697Z,14.63
2023-04-08T17:34:00.158Z,15.90
2023-04-08T17:36:30.426Z,15.00
2023-04-08T17:39:05.030Z,13.70
2023-04-08T17:41:40.543Z,16.70
2023-04-08T17:44:09.457Z,20.83
2023-04-08T17:46:39.323Z,17.63
2023-04-08T17:49:07.657Z,17.75
2023-04-08T17:51:36.159Z,16.40
2023-04-08T17:54:07.716Z,17.50
2023-04-08T17:56:36.216Z,18.50
2023-04-08T17:59:04.645Z,17.17
2023-04-08T18:01:33.385Z,16.23
2023-04-08T18:04:06.936Z,17.50
2023-04-08T18:06:35.631Z,16.55
2023-04-08T18:09:04.736Z,16.67
2023-04-08T18:11:36.362Z,19.52
2023-04-08T18:14:07.829Z,30.38
2023-04-08T18:16:39.321Z,30.15
2023-04-08T18:19:11.504Z,36.10
2023-04-08T18:21:39.946Z,33.63
2023-04-08T18:24:11.926Z,29.58
2023-04-08T18:26:51.753Z,38.85
2023-04-08T18:29:32.567Z,30.80
2023-04-08T18:32:02.357Z,32.28
2023-04-08T18:34:35.997Z,39.75
2023-04-08T18:37:07.441Z,18.35
2023-04-08T18:39:36.057Z,20.50
2023-04-08T18:42:15.988Z,19.10
2023-04-08T18:44:47.733Z,19.13
2023-04-08T18:47:20.441Z,23.63
2023-04-08T18:49:58.766Z,21.50
2023-04-08T18:52:35.199Z,22.70
2023-04-08T18:55:06.388Z,20.95
2023-04-08T18:57:39.865Z,35.50
2023-04-08T19:00:15.146Z,31.63
2023-04-08T19:02:48.097Z,83.35
2023-04-08T19:05:21.375Z,43.03
2023-04-08T19:08:02.686Z,25.02
2023-04-08T19:10:37.048Z,26.48
2023-04-08T19:13:05.959Z,29.60
2023-04-08T19:15:37.790Z,25.50
2023-04-08T19:18:10.658Z,22.63
2023-04-08T19:21:08.641Z,35.63
2023-04-08T19:23:39.901Z,29.45
2023-04-08T19:26:22.785Z,26.60
2023-04-08T19:28:56.710Z,25.05
2023-04-08T19:31:25.586Z,26.83
2023-04-08T19:33:54.695Z,24.33
2023-04-08T19:39:47.832Z,41.85
2023-04-08T19:42:16.485Z,41.00
2023-04-08T19:44:45.176Z,36.70
2023-04-08T19:47:14.068Z,36.25
2023-04-08T19:52:34.728Z,35.72
2023-04-08T19:55:11.205Z,40.25
2023-04-08T19:57:48.398Z,37.40
2023-04-08T20:00:20.865Z,33.67
2023-04-08T20:02:53.182Z,30.35
2023-04-08T20:09:41.910Z,29.00
2023-04-08T20:18:22.026Z,26.92
2023-04-08T20:21:30.981Z,25.17
2023-04-08T20:24:20.271Z,25.50
2023-04-08T20:30:39.867Z,23.30
2023-04-08T20:36:29.887Z,33.22
2023-04-08T20:47:42.466Z,24.25
2023-04-08T20:51:09.123Z,22.80
2023-04-08T20:54:02.813Z,22.17
2023-04-08T21:10:18.102Z,27.40
2023-04-08T21:13:02.679Z,26.33
2023-04-08T21:15:38.586Z,25.27
2023-04-08T21:24:34.619Z,23.58
2023-04-08T21:31:40.079Z,23.33
2023-04-08T21:35:15.493Z,28.05
2023-04-08T21:38:34.479Z,28.08
2023-04-08T21:47:26.571Z,25.50
2023-04-08T21:50:09.565Z,29.70
2023-04-08T21:53:00.922Z,29.80
2023-04-08T22:21:21.919Z,26.52
2023-04-08T22:23:55.128Z,29.58
2023-04-08T22:27:07.663Z,26.80
2023-04-08T22:37:09.717Z,24.77
2023-04-08T22:40:28.552Z,25.70
2023-04-08T22:43:39.070Z,26.85
2023-04-08T22:46:30.982Z,24.27
2023-04-08T22:49:01.427Z,24.55
2023-04-08T22:51:51.988Z,26.92
2023-04-08T23:08:10.194Z,25.73
2023-04-08T23:15:25.233Z,25.63
2023-04-08T23:26:08.562Z,26.75
2023-04-08T23:35:10.891Z,29.48
2023-04-08T23:40:32.981Z,30.27
2023-04-08T23:46:05.673Z,31.95
2023-04-08T23:49:27.166Z,31.33
2023-04-08T23:58:28.920Z,33.85
